Time;durP1;ratioP1;P1;durP2;ratioP2;P2;SDS_P1;SDS_P2;PMS_P1;PMS_P2;Temp;Humidity;BMP_temperature;BMP_pressure;BME280_temperature;BME280_humidity;BME280_pressure;Samples;Min_cycle;Max_cycle;Signal;HPM_P1;HPM_P2
2021/07/30 00:00:25;;;;;;;7.70;2.70;;;22.80;69.90;;;;;;4230839;28;20056;-80
2021/07/30 00:02:30;;;;;;;13.13;2.63;;;22.80;69.90;;;;;;4249524;27;20034;-81
2021/07/30 00:04:34;;;;;;;9.60;2.97;;;22.70;70.30;;;;;;4248074;27;20047;-79
2021/07/30 00:06:37;;;;;;;7.07;2.78;;;22.70;70.30;;;;;;4266130;27;20035;-80
2021/07/30 00:08:40;;;;;;;4.35;2.40;;;22.70;70.10;;;;;;4230625;28;20509;-82
2021/07/30 00:10:43;;;;;;;10.35;2.28;;;22.70;70.00;;;;;;4247163;27;20087;-82
2021/07/30 00:12:50;;;;;;;14.20;2.97;;;22.70;70.00;;;;;;4247363;27;20431;-79
2021/07/30 00:14:53;;;;;;;7.00;2.78;;;22.70;69.80;;;;;;4247517;27;20047;-80
2021/07/30 00:16:56;;;;;;;8.93;2.83;;;22.70;69.60;;;;;;4265724;27;20043;-81
2021/07/30 00:19:00;;;;;;;10.32;3.55;;;22.70;69.60;;;;;;4247600;27;20551;-79
2021/07/30 00:21:04;;;;;;;8.05;3.30;;;22.70;70.00;;;;;;4247991;27;20660;-81
2021/07/30 00:23:07;;;;;;;6.65;2.80;;;22.70;70.20;;;;;;4250158;27;20045;-81
2021/07/30 00:25:11;;;;;;;6.88;3.15;;;22.60;70.10;;;;;;4249171;27;20047;-81
2021/07/30 00:27:14;;;;;;;8.40;2.90;;;22.60;70.10;;;;;;4265292;27;20065;-82
2021/07/30 00:29:17;;;;;;;7.53;3.00;;;22.60;70.20;;;;;;4247540;27;20046;-82
2021/07/30 00:31:20;;;;;;;9.50;2.80;;;22.60;70.20;;;;;;4247385;27;20043;-82
2021/07/30 00:33:23;;;;;;;6.82;3.00;;;22.60;70.90;;;;;;4247589;27;20043;-81
2021/07/30 00:35:27;;;;;;;5.25;3.00;;;22.60;70.50;;;;;;4247306;27;20047;-81
2021/07/30 00:37:31;;;;;;;5.68;2.80;;;22.60;70.70;;;;;;4247007;27;20051;-81
2021/07/30 00:39:34;;;;;;;9.00;3.42;;;22.60;71.10;;;;;;4247005;27;20059;-81
2021/07/30 00:41:39;;;;;;;5.47;2.53;;;22.60;70.60;;;;;;4265805;27;20046;-82
2021/07/30 00:43:42;;;;;;;9.73;3.67;;;22.60;70.70;;;;;;4247692;27;20131;-80
2021/07/30 00:45:45;;;;;;;8.32;3.25;;;22.50;71.10;;;;;;4265591;27;20039;-82
2021/07/30 00:47:49;;;;;;;7.28;3.08;;;22.50;71.00;;;;;;4247968;27;20039;-82
2021/07/30 00:49:54;;;;;;;19.27;2.95;;;22.50;71.10;;;;;;4251305;27;20698;-83
2021/07/30 00:51:58;;;;;;;8.13;3.03;;;22.50;71.80;;;;;;4270816;27;20106;-82
2021/07/30 00:54:02;;;;;;;7.68;2.85;;;22.50;71.80;;;;;;4250930;27;20039;-82
2021/07/30 00:56:05;;;;;;;9.77;2.67;;;22.50;72.00;;;;;;4249301;27;20498;-82
2021/07/30 00:58:08;;;;;;;7.60;2.90;;;22.50;72.10;;;;;;4248810;27;20068;-79
2021/07/30 01:00:11;;;;;;;9.10;2.63;;;22.50;72.40;;;;;;4231236;27;20127;-80
2021/07/30 01:02:14;;;;;;;6.43;2.80;;;22.50;72.50;;;;;;4248426;27;20064;-80
2021/07/30 01:04:18;;;;;;;12.65;2.78;;;22.40;72.70;;;;;;4266164;27;20043;-80
2021/07/30 01:06:21;;;;;;;9.52;3.55;;;22.40;73.10;;;;;;4247234;27;20039;-79
2021/07/30 01:08:25;;;;;;;7.35;2.72;;;22.20;73.20;;;;;;4247630;27;20462;-81
2021/07/30 01:10:29;;;;;;;6.28;2.60;;;22.30;72.90;;;;;;4246979;27;20122;-81
2021/07/30 01:12:32;;;;;;;5.13;2.75;;;22.30;73.50;;;;;;4229888;28;20427;-80
2021/07/30 01:14:35;;;;;;;7.68;3.13;;;22.30;73.40;;;;;;4247221;27;20039;-81
2021/07/30 01:16:39;;;;;;;5.82;2.30;;;22.30;73.70;;;;;;4247494;27;20095;-81
2021/07/30 01:18:42;;;;;;;9.10;3.22;;;22.30;74.60;;;;;;4247546;27;20099;-81
2021/07/30 01:20:56;;;;;;;7.88;2.80;;;22.20;75.00;;;;;;4247294;27;20049;-81
2021/07/30 01:23:02;;;;;;;6.22;2.70;;;22.20;74.50;;;;;;4248703;27;20051;-80
2021/07/30 01:25:05;;;;;;;4.82;2.63;;;22.10;75.00;;;;;;4247365;27;20043;-80
2021/07/30 01:27:08;;;;;;;7.18;3.03;;;22.10;74.50;;;;;;4247205;27;20448;-81
2021/07/30 01:29:12;;;;;;;10.90;3.03;;;22.10;74.80;;;;;;4246791;27;20043;-80
2021/07/30 01:31:15;;;;;;;8.27;2.88;;;22.10;75.00;;;;;;4247024;27;20589;-79
2021/07/30 01:33:18;;;;;;;9.50;2.75;;;22.10;74.80;;;;;;4247311;27;20076;-81
2021/07/30 01:35:21;;;;;;;9.77;3.30;;;22.00;75.00;;;;;;4230390;28;20059;-81
2021/07/30 01:37:26;;;;;;;6.68;2.85;;;22.00;75.20;;;;;;4229695;28;20480;-80
2021/07/30 01:39:30;;;;;;;11.63;2.67;;;22.00;75.20;;;;;;4264163;27;20085;-81
2021/07/30 01:41:33;;;;;;;7.28;2.80;;;22.00;75.40;;;;;;4229590;28;20142;-81
2021/07/30 01:43:37;;;;;;;6.38;2.75;;;21.90;75.50;;;;;;4264236;27;20111;-81
2021/07/30 01:45:40;;;;;;;7.20;2.78;;;22.00;75.20;;;;;;4264508;27;20137;-80
2021/07/30 01:47:43;;;;;;;6.35;3.10;;;22.00;75.40;;;;;;4246320;27;20616;-82
2021/07/30 01:49:47;;;;;;;11.40;3.50;;;22.00;75.50;;;;;;4245821;27;20782;-80
2021/07/30 01:51:50;;;;;;;4.60;2.53;;;22.00;75.70;;;;;;4246193;27;20118;-79
2021/07/30 01:53:53;;;;;;;8.48;2.60;;;22.00;76.20;;;;;;4246355;27;20044;-81
2021/07/30 01:56:03;;;;;;;6.15;2.63;;;21.90;76.00;;;;;;4246249;27;20448;-81
2021/07/30 01:58:06;;;;;;;7.97;3.10;;;21.90;76.30;;;;;;4245956;27;20059;-82
2021/07/30 02:00:10;;;;;;;5.10;2.53;;;21.90;76.00;;;;;;4246392;27;20043;-82
2021/07/30 02:02:13;;;;;;;8.17;2.57;;;21.90;76.00;;;;;;4246050;27;20070;-81
2021/07/30 02:04:18;;;;;;;8.85;2.70;;;21.90;76.30;;;;;;4245860;27;20103;-80
2021/07/30 02:06:21;;;;;;;10.52;2.55;;;21.80;76.30;;;;;;4229353;28;20100;-81
2021/07/30 02:08:24;;;;;;;6.18;2.90;;;21.80;76.40;;;;;;4246413;27;20065;-80
2021/07/30 02:10:27;;;;;;;11.23;2.58;;;21.80;76.10;;;;;;4246464;27;20523;-81
2021/07/30 02:14:14;;;;;;;8.35;2.80;;;21.80;76.40;;;;;;4246535;27;20061;-82
2021/07/30 02:14:55;;;;;;;10.68;2.72;;;21.80;76.60;;;;;;4264120;27;20039;-80
2021/07/30 02:16:58;;;;;;;9.15;2.90;;;21.70;76.80;;;;;;4245653;27;20057;-81
2021/07/30 02:19:01;;;;;;;6.50;2.47;;;21.70;76.90;;;;;;4229174;28;20136;-81
2021/07/30 02:21:04;;;;;;;5.72;2.95;;;21.80;76.70;;;;;;4229211;28;20088;-81
2021/07/30 02:23:07;;;;;;;6.13;3.30;;;21.80;76.50;;;;;;4245980;27;20164;-81
2021/07/30 02:25:11;;;;;;;6.40;2.53;;;21.80;76.70;;;;;;4245810;27;20123;-81
2021/07/30 02:27:14;;;;;;;11.20;2.85;;;21.80;76.20;;;;;;4263791;27;20065;-79
2021/07/30 02:29:18;;;;;;;8.02;2.70;;;21.80;76.40;;;;;;4264105;27;20061;-79
2021/07/30 02:31:22;;;;;;;8.65;2.95;;;21.80;76.70;;;;;;4246220;28;20165;-80
2021/07/30 02:33:25;;;;;;;9.18;2.47;;;21.80;76.40;;;;;;4246975;27;20055;-80
2021/07/30 02:35:28;;;;;;;10.70;2.72;;;21.70;76.60;;;;;;4248480;27;20047;-81
2021/07/30 02:37:31;;;;;;;5.45;2.50;;;21.80;76.90;;;;;;4267560;27;20095;-80
2021/07/30 02:39:35;;;;;;;6.65;2.90;;;21.70;76.80;;;;;;4249176;27;20065;-81
2021/07/30 02:41:38;;;;;;;5.70;2.65;;;21.80;76.60;;;;;;4267737;27;20456;-82
2021/07/30 02:43:41;;;;;;;7.07;2.92;;;21.70;77.10;;;;;;4249358;27;20091;-79
2021/07/30 02:45:47;;;;;;;9.98;3.00;;;21.70;76.90;;;;;;4232296;28;20052;-80
2021/07/30 02:47:50;;;;;;;7.82;2.72;;;21.70;77.50;;;;;;4268089;27;20443;-80
2021/07/30 02:49:53;;;;;;;6.10;2.83;;;21.60;77.00;;;;;;4250830;27;20054;-81
2021/07/30 02:51:56;;;;;;;6.05;2.55;;;21.70;77.50;;;;;;4251092;27;20047;-80
2021/07/30 02:53:59;;;;;;;9.10;2.65;;;21.70;77.70;;;;;;4267476;27;20416;-82
2021/07/30 02:56:03;;;;;;;6.55;2.60;;;21.60;77.50;;;;;;4249208;27;20064;-81
2021/07/30 02:58:06;;;;;;;6.07;2.90;;;21.70;77.60;;;;;;4236579;27;20143;-81
2021/07/30 03:00:09;;;;;;;13.98;3.30;;;21.70;77.50;;;;;;4255307;27;20047;-79
2021/07/30 03:02:14;;;;;;;9.07;3.10;;;21.60;77.50;;;;;;4251845;27;20047;-80
2021/07/30 03:04:17;;;;;;;11.07;3.35;;;21.70;77.70;;;;;;4250058;27;20065;-81
2021/07/30 03:06:20;;;;;;;7.35;2.97;;;21.60;77.70;;;;;;4248948;27;20063;-81
2021/07/30 03:08:24;;;;;;;7.03;2.75;;;21.60;77.90;;;;;;4267478;27;20122;-80
2021/07/30 03:10:27;;;;;;;7.47;3.08;;;21.60;78.00;;;;;;4249754;27;20046;-81
2021/07/30 03:12:31;;;;;;;6.97;3.30;;;21.60;78.10;;;;;;4250182;27;20212;-81
2021/07/30 03:14:34;;;;;;;7.90;2.92;;;21.60;78.00;;;;;;4249474;27;20127;-80
2021/07/30 03:16:37;;;;;;;12.20;3.20;;;21.60;77.90;;;;;;4250037;27;20047;-82
2021/07/30 03:18:44;;;;;;;9.63;3.25;;;21.70;78.10;;;;;;4249400;27;20131;-81
2021/07/30 03:20:47;;;;;;;7.32;3.40;;;21.60;78.30;;;;;;4250498;27;20554;-81
2021/07/30 03:22:50;;;;;;;7.82;2.70;;;21.60;78.20;;;;;;4249055;27;20108;-80
2021/07/30 03:24:53;;;;;;;8.90;2.97;;;21.60;78.30;;;;;;4267143;27;20133;-80
2021/07/30 03:26:56;;;;;;;6.53;2.72;;;21.60;78.20;;;;;;4267309;27;20043;-81
2021/07/30 03:28:59;;;;;;;5.55;2.80;;;21.60;78.20;;;;;;4266823;27;20038;-80
2021/07/30 03:31:02;;;;;;;6.00;2.42;;;21.60;78.30;;;;;;4266681;27;20104;-80
2021/07/30 03:33:05;;;;;;;11.60;2.80;;;21.60;78.50;;;;;;4247917;27;20051;-80
2021/07/30 03:35:11;;;;;;;5.78;2.35;;;21.50;79.20;;;;;;4248628;27;20146;-81
2021/07/30 03:37:14;;;;;;;7.93;3.00;;;21.50;79.00;;;;;;4231496;28;20048;-79
2021/07/30 03:39:17;;;;;;;5.75;2.38;;;21.50;78.70;;;;;;4248306;27;20051;-79
2021/07/30 03:41:20;;;;;;;5.53;2.45;;;21.50;79.00;;;;;;4248447;27;20043;-80
2021/07/30 03:43:23;;;;;;;5.68;3.10;;;21.50;79.20;;;;;;4248395;27;20039;-81
2021/07/30 03:45:26;;;;;;;5.10;2.72;;;21.40;79.40;;;;;;4265882;27;20045;-80
2021/07/30 03:47:29;;;;;;;3.60;2.50;;;21.40;79.70;;;;;;4248053;27;20048;-79
2021/07/30 03:49:32;;;;;;;5.82;2.40;;;21.30;79.80;;;;;;4266594;27;20114;-79
2021/07/30 03:51:37;;;;;;;10.07;3.00;;;21.40;80.00;;;;;;4248236;27;20112;-80
2021/07/30 03:53:40;;;;;;;9.93;2.30;;;21.30;80.20;;;;;;4247825;27;20061;-81
2021/07/30 03:55:43;;;;;;;5.63;2.45;;;21.40;79.80;;;;;;4266639;27;20047;-80
2021/07/30 03:57:46;;;;;;;6.05;2.60;;;21.50;79.60;;;;;;4248160;27;20039;-77
2021/07/30 03:59:49;;;;;;;8.15;2.75;;;21.30;80.00;;;;;;4248333;27;20523;-81
2021/07/30 04:01:52;;;;;;;4.93;2.50;;;21.20;80.70;;;;;;4248712;27;20127;-81
2021/07/30 04:03:55;;;;;;;7.70;2.67;;;21.20;80.70;;;;;;4248149;27;20043;-81
2021/07/30 04:06:00;;;;;;;7.90;2.60;;;21.20;80.60;;;;;;4248376;27;20715;-80
2021/07/30 04:08:06;;;;;;;;;;;21.20;81.00;;;;;;4248744;27;20080;-81
2021/07/30 04:10:09;;;;;;;4.28;2.47;;;21.20;81.20;;;;;;4248445;27;20003;-81
2021/07/30 04:12:12;;;;;;;7.35;3.08;;;21.10;81.20;;;;;;4248065;27;20051;-80
2021/07/30 04:14:15;;;;;;;10.45;2.80;;;21.10;81.40;;;;;;4250097;27;20051;-80
2021/07/30 04:16:19;;;;;;;8.50;3.05;;;21.20;81.40;;;;;;4249178;27;20050;-81
2021/07/30 04:18:22;;;;;;;6.50;2.85;;;21.10;81.70;;;;;;4268051;27;20039;-81
2021/07/30 04:20:25;;;;;;;11.15;3.03;;;21.10;81.40;;;;;;4250341;27;20437;-80
2021/07/30 04:22:28;;;;;;;4.78;2.60;;;21.10;81.40;;;;;;4249545;27;20046;-81
2021/07/30 04:24:34;;;;;;;5.72;2.63;;;21.00;81.90;;;;;;4232249;28;20082;-81
2021/07/30 04:26:37;;;;;;;8.05;3.00;;;21.20;81.70;;;;;;4267524;27;20122;-82
2021/07/30 04:28:40;;;;;;;8.10;2.80;;;21.10;82.30;;;;;;4267481;27;20045;-79
2021/07/30 04:30:43;;;;;;;10.20;2.50;;;21.10;82.00;;;;;;4266921;27;20085;-80
2021/07/30 04:32:46;;;;;;;9.40;3.05;;;21.10;82.20;;;;;;4247684;27;20564;-80
2021/07/30 04:34:49;;;;;;;7.40;2.75;;;21.10;82.20;;;;;;4247992;27;20045;-80
2021/07/30 04:36:52;;;;;;;7.75;2.80;;;21.10;82.50;;;;;;4249849;27;20050;-79
2021/07/30 04:38:55;;;;;;;12.35;3.13;;;21.00;82.50;;;;;;4231257;28;20548;-81
2021/07/30 04:41:04;;;;;;;8.52;2.67;;;21.00;82.50;;;;;;4247639;27;20058;-80
2021/07/30 04:43:07;;;;;;;9.18;2.80;;;20.90;83.20;;;;;;4266079;27;20042;-81
2021/07/30 04:45:11;;;;;;;11.63;2.67;;;20.80;83.40;;;;;;4265704;27;20073;-80
2021/07/30 04:47:14;;;;;;;11.20;2.97;;;20.80;83.70;;;;;;4247573;27;20047;-81
2021/07/30 04:49:17;;;;;;;6.72;2.85;;;20.80;83.50;;;;;;4247345;27;20120;-82
2021/07/30 04:51:20;;;;;;;6.60;2.70;;;20.80;84.20;;;;;;4247434;27;20359;-83
2021/07/30 04:53:23;;;;;;;11.45;2.70;;;20.80;83.90;;;;;;4247613;27;20088;-82
2021/07/30 04:55:27;;;;;;;7.63;2.65;;;20.80;84.00;;;;;;4230489;28;20056;-81
2021/07/30 04:57:33;;;;;;;5.85;2.72;;;20.70;84.00;;;;;;4264913;27;20066;-80
2021/07/30 04:59:36;;;;;;;6.35;2.83;;;20.70;84.30;;;;;;4265423;27;20042;-79
2021/07/30 05:01:42;;;;;;;6.45;2.80;;;20.60;84.60;;;;;;4246871;27;20108;-82
2021/07/30 05:03:46;;;;;;;5.70;2.38;;;20.60;84.70;;;;;;4229901;28;20598;-82
2021/07/30 05:05:49;;;;;;;5.95;2.70;;;20.70;84.40;;;;;;4265350;27;20038;-83
2021/07/30 05:07:52;;;;;;;9.43;3.03;;;20.70;84.40;;;;;;4247017;27;20498;-80
2021/07/30 05:09:55;;;;;;;7.00;3.05;;;20.70;84.30;;;;;;4246767;27;20066;-80
2021/07/30 05:11:58;;;;;;;5.30;2.55;;;20.70;83.60;;;;;;4247493;27;20061;-81
2021/07/30 05:14:03;;;;;;;6.45;2.90;;;20.80;84.20;;;;;;4230110;28;20052;-82
2021/07/30 05:16:07;;;;;;;11.25;2.85;;;20.60;84.20;;;;;;4247158;27;20444;-81
2021/07/30 05:18:10;;;;;;;10.18;2.70;;;20.50;84.30;;;;;;4246933;27;20043;-82
2021/07/30 05:20:13;;;;;;;9.93;2.90;;;20.60;84.10;;;;;;4246824;27;20519;-80
2021/07/30 05:22:16;;;;;;;6.63;2.85;;;20.80;83.70;;;;;;4266790;27;20121;-82
2021/07/30 05:24:19;;;;;;;6.00;2.45;;;20.70;83.30;;;;;;4248493;27;20050;-81
2021/07/30 05:26:22;;;;;;;13.43;3.00;;;20.60;83.80;;;;;;4265268;27;20054;-81
2021/07/30 05:28:26;;;;;;;5.38;2.60;;;20.60;83.30;;;;;;4247039;27;20506;-81
2021/07/30 05:30:31;;;;;;;8.60;2.95;;;20.60;83.20;;;;;;4247035;27;20096;-82
2021/07/30 05:32:34;;;;;;;;;;;20.70;83.30;;;;;;4247319;27;20047;-82
2021/07/30 05:34:38;;;;;;;6.72;2.67;;;20.60;83.30;;;;;;4246645;27;19930;-81
2021/07/30 05:36:42;;;;;;;6.50;2.67;;;20.60;83.40;;;;;;4246653;27;20054;-82
2021/07/30 05:38:46;;;;;;;5.23;2.60;;;20.60;83.30;;;;;;4246701;27;20043;-81
2021/07/30 05:40:49;;;;;;;12.83;2.87;;;20.70;83.50;;;;;;4264471;27;20518;-80
2021/07/30 05:42:52;;;;;;;7.25;2.63;;;20.70;82.90;;;;;;4246378;27;20043;-81
2021/07/30 05:44:55;;;;;;;8.80;2.65;;;20.70;83.20;;;;;;4246402;27;20043;-80
2021/07/30 05:47:02;;;;;;;5.85;2.80;;;20.60;83.50;;;;;;4264542;27;20078;-82
2021/07/30 05:49:06;;;;;;;8.32;3.00;;;20.60;83.60;;;;;;4247437;27;20440;-80
2021/07/30 05:51:09;;;;;;;7.10;2.60;;;20.50;83.90;;;;;;4249310;27;20091;-80
2021/07/30 05:53:12;;;;;;;6.63;2.47;;;20.50;84.10;;;;;;4246459;27;20115;-82
2021/07/30 05:55:16;;;;;;;7.63;2.83;;;20.50;84.00;;;;;;4246289;27;20043;-81
2021/07/30 05:57:20;;;;;;;4.77;2.60;;;20.50;84.10;;;;;;4246534;27;20043;-83
2021/07/30 05:59:23;;;;;;;9.40;3.03;;;20.50;84.30;;;;;;4264582;27;20038;-83
2021/07/30 06:01:26;;;;;;;10.07;3.53;;;20.60;84.30;;;;;;4246193;27;20082;-82
2021/07/30 06:03:31;;;;;;;11.70;3.78;;;20.60;84.70;;;;;;4246379;27;20049;-83
2021/07/30 06:05:34;;;;;;;10.10;2.97;;;20.50;84.80;;;;;;4247966;27;20427;-82
2021/07/30 06:07:38;;;;;;;6.97;2.90;;;20.50;84.80;;;;;;4264640;27;20051;-80
2021/07/30 06:09:41;;;;;;;10.18;2.92;;;20.70;84.70;;;;;;4246242;27;20541;-80
2021/07/30 06:11:44;;;;;;;6.22;2.63;;;20.60;85.20;;;;;;4246123;27;20285;-82
2021/07/30 06:13:47;;;;;;;7.60;2.70;;;20.70;85.50;;;;;;4246009;27;20066;-81
2021/07/30 06:15:50;;;;;;;10.00;3.05;;;20.70;85.40;;;;;;4264322;27;20046;-77
2021/07/30 06:17:53;;;;;;;10.20;3.65;;;20.70;85.80;;;;;;4245581;27;20047;-80
2021/07/30 06:19:58;;;;;;;9.10;3.00;;;20.70;86.30;;;;;;4246446;27;20168;-80
2021/07/30 06:22:02;;;;;;;9.73;2.30;;;20.60;86.70;;;;;;4245759;27;20579;-82
2021/07/30 06:24:06;;;;;;;10.45;2.80;;;20.50;86.70;;;;;;4264084;27;20047;-79
2021/07/30 06:26:09;;;;;;;9.82;2.70;;;20.70;86.60;;;;;;4264184;27;20053;-78
2021/07/30 06:28:16;;;;;;;11.65;3.08;;;20.80;86.70;;;;;;4248145;27;20644;-81
2021/07/30 06:30:19;;;;;;;7.15;2.60;;;21.00;86.30;;;;;;4264475;27;20077;-82
2021/07/30 06:32:22;;;;;;;11.00;3.40;;;20.90;86.20;;;;;;4245892;27;20049;-82
2021/07/30 06:34:25;;;;;;;11.93;3.33;;;21.10;86.30;;;;;;4245980;27;20459;-82
2021/07/30 06:36:29;;;;;;;8.27;2.70;;;21.20;86.20;;;;;;4229656;28;20533;-81
2021/07/30 06:38:32;;;;;;;7.65;2.53;;;21.20;86.00;;;;;;4246194;27;20464;-82
2021/07/30 06:40:36;;;;;;;7.65;2.78;;;21.20;85.60;;;;;;4245922;27;20158;-81
2021/07/30 06:42:39;;;;;;;12.90;3.00;;;21.30;86.10;;;;;;4246251;27;20042;-81
2021/07/30 06:44:46;;;;;;;16.20;3.15;;;21.40;85.80;;;;;;4246021;28;20047;-81
2021/07/30 06:46:49;;;;;;;9.90;2.50;;;21.50;85.80;;;;;;4250056;27;20051;-80
2021/07/30 06:48:52;;;;;;;7.28;3.10;;;21.60;85.40;;;;;;4250454;27;20087;-80
2021/07/30 06:50:56;;;;;;;7.93;2.47;;;21.70;85.20;;;;;;4248774;27;20039;-81
2021/07/30 06:53:01;;;;;;;7.55;2.47;;;21.90;84.50;;;;;;4231288;28;20056;-81
2021/07/30 06:55:05;;;;;;;10.35;3.45;;;22.00;84.80;;;;;;4266794;27;20184;-82
2021/07/30 06:57:08;;;;;;;14.20;3.10;;;21.90;84.90;;;;;;4246535;27;20544;-81
2021/07/30 06:59:11;;;;;;;7.63;2.47;;;22.00;84.60;;;;;;4266917;27;20059;-82
2021/07/30 07:01:14;;;;;;;7.82;3.33;;;21.90;84.80;;;;;;4248894;27;20575;-80
2021/07/30 07:03:18;;;;;;;11.73;2.65;;;21.80;84.50;;;;;;4248208;27;20035;-81
2021/07/30 07:05:21;;;;;;;7.72;2.80;;;21.70;84.20;;;;;;4245728;27;20089;-82
2021/07/30 07:07:24;;;;;;;11.63;3.15;;;21.60;84.70;;;;;;4245443;27;20077;-82
2021/07/30 07:09:28;;;;;;;15.80;3.17;;;21.70;85.00;;;;;;4245774;27;20061;-82
2021/07/30 07:11:32;;;;;;;9.82;3.00;;;21.70;85.10;;;;;;4246177;27;20053;-80
2021/07/30 07:13:35;;;;;;;9.30;2.53;;;21.80;85.50;;;;;;4245815;27;20071;-81
2021/07/30 07:15:42;;;;;;;5.70;2.60;;;21.90;85.30;;;;;;4246142;27;20091;-78
2021/07/30 07:17:45;;;;;;;11.93;3.13;;;22.00;85.00;;;;;;4245881;27;20047;-80
2021/07/30 07:19:48;;;;;;;9.85;2.80;;;22.00;85.20;;;;;;4228996;28;20055;-81
2021/07/30 07:21:52;;;;;;;10.02;3.05;;;22.00;85.70;;;;;;4248683;27;20061;-82
2021/07/30 07:23:55;;;;;;;6.72;2.83;;;22.10;85.50;;;;;;4231877;28;20134;-82
2021/07/30 07:26:01;;;;;;;7.15;2.58;;;22.10;85.70;;;;;;4248776;27;20055;-82
2021/07/30 07:28:05;;;;;;;8.05;2.97;;;21.90;86.40;;;;;;4266921;27;20043;-81
2021/07/30 07:30:09;;;;;;;9.02;3.33;;;22.10;87.00;;;;;;4249493;27;20035;-80
2021/07/30 07:32:12;;;;;;;6.18;2.63;;;22.10;86.50;;;;;;4267794;27;20058;-79
2021/07/30 07:34:15;;;;;;;7.97;3.53;;;22.10;86.50;;;;;;4248302;27;20059;-81
2021/07/30 07:36:18;;;;;;;11.05;2.90;;;22.10;86.70;;;;;;4266773;27;20058;-82
2021/07/30 07:38:22;;;;;;;14.07;3.17;;;22.00;87.00;;;;;;4266634;27;20057;-81
2021/07/30 07:40:25;;;;;;;8.35;3.03;;;21.80;88.40;;;;;;4248503;27;20043;-80
2021/07/30 07:42:29;;;;;;;7.63;3.10;;;21.90;88.30;;;;;;4249016;27;20133;-80
2021/07/30 07:44:34;;;;;;;;;;;21.90;89.00;;;;;;4249664;27;20467;-81
2021/07/30 07:46:37;;;;;;;6.03;3.00;;;22.00;88.70;;;;;;4248728;27;19942;-81
2021/07/30 07:48:41;;;;;;;8.45;3.15;;;22.00;88.90;;;;;;4233746;28;20051;-81
2021/07/30 07:50:44;;;;;;;15.07;3.50;;;22.10;89.30;;;;;;4252756;27;20114;-80
2021/07/30 07:52:47;;;;;;;12.45;3.58;;;22.30;88.70;;;;;;4251135;27;20138;-81
2021/07/30 07:54:50;;;;;;;5.10;2.70;;;22.30;88.60;;;;;;4231865;28;20056;-81
2021/07/30 07:56:54;;;;;;;10.48;2.92;;;22.20;89.30;;;;;;4248609;27;20054;-81
2021/07/30 07:58:58;;;;;;;6.78;2.92;;;22.20;90.00;;;;;;4248385;27;20065;-82
2021/07/30 08:01:02;;;;;;;10.35;2.83;;;22.30;90.20;;;;;;4247965;27;20464;-81
2021/07/30 08:03:05;;;;;;;16.20;3.00;;;22.30;90.20;;;;;;4248278;27;20084;-80
2021/07/30 08:05:09;;;;;;;6.57;2.72;;;22.50;90.30;;;;;;4248018;27;20043;-80
2021/07/30 08:07:17;;;;;;;8.43;2.87;;;22.40;90.30;;;;;;4259320;27;20375;-77
2021/07/30 08:09:20;;;;;;;8.48;2.63;;;22.30;90.40;;;;;;4244042;27;20054;-79
2021/07/30 08:11:23;;;;;;;11.13;3.58;;;22.40;90.70;;;;;;4274550;27;20254;-79
2021/07/30 08:13:26;;;;;;;13.10;3.17;;;22.50;90.60;;;;;;4256501;27;20058;-80
2021/07/30 08:15:31;;;;;;;15.65;3.22;;;22.50;90.70;;;;;;4256466;27;20106;-78
2021/07/30 08:17:35;;;;;;;13.65;2.78;;;22.70;90.60;;;;;;4257639;27;20050;-79
2021/07/30 08:19:39;;;;;;;12.15;3.00;;;22.70;90.50;;;;;;4256333;27;20047;-80
2021/07/30 08:21:43;;;;;;;20.08;3.33;;;22.90;90.30;;;;;;4256550;27;20047;-79
2021/07/30 08:23:46;;;;;;;6.75;2.63;;;23.10;90.30;;;;;;4257645;27;20050;-77
2021/07/30 08:25:50;;;;;;;8.95;2.53;;;23.20;90.30;;;;;;4255881;27;20051;-79
2021/07/30 08:27:53;;;;;;;8.65;2.33;;;23.10;90.10;;;;;;4257459;27;20155;-79
2021/07/30 08:29:57;;;;;;;8.13;2.85;;;23.00;90.00;;;;;;4257350;27;20110;-79
2021/07/30 08:32:03;;;;;;;6.82;2.92;;;22.80;90.30;;;;;;4256987;27;20039;-79
2021/07/30 08:34:06;;;;;;;5.72;2.90;;;22.90;90.40;;;;;;4256811;27;20051;-78
2021/07/30 08:36:09;;;;;;;5.65;2.60;;;23.00;90.30;;;;;;4255825;27;20046;-79
2021/07/30 08:38:12;;;;;;;4.45;2.22;;;23.00;90.40;;;;;;4256808;27;20402;-78
2021/07/30 08:40:15;;;;;;;6.03;3.13;;;22.80;90.60;;;;;;4256870;27;20071;-79
2021/07/30 08:42:19;;;;;;;5.43;2.90;;;22.60;90.90;;;;;;4256797;27;20386;-78
2021/07/30 08:44:22;;;;;;;8.88;3.05;;;22.50;91.00;;;;;;4246636;27;20495;-77
2021/07/30 08:46:26;;;;;;;7.32;2.88;;;22.50;91.30;;;;;;4245299;27;20057;-78
2021/07/30 08:48:33;;;;;;;10.00;3.03;;;22.60;91.30;;;;;;4247156;27;20438;-77
2021/07/30 08:50:38;;;;;;;14.93;2.88;;;22.60;91.30;;;;;;4246678;27;20478;-78
2021/07/30 08:52:41;;;;;;;;;;;22.70;91.40;;;;;;4246649;27;20051;-78
2021/07/30 08:54:52;;;;;;;8.95;2.55;;;22.70;91.50;;;;;;4247437;27;19947;-78
2021/07/30 08:56:55;;;;;;;9.30;2.63;;;22.70;91.50;;;;;;4247501;27;20059;-79
2021/07/30 08:58:58;;;;;;;9.95;2.63;;;22.70;91.60;;;;;;4254297;27;20042;-76
2021/07/30 09:01:01;;;;;;;4.80;2.20;;;22.80;91.70;;;;;;4264736;27;20038;-79
2021/07/30 09:03:04;;;;;;;10.02;2.40;;;22.70;91.70;;;;;;4263371;27;20125;-77
2021/07/30 09:05:28;;;;;;;7.90;2.47;;;22.70;92.10;;;;;;4264221;27;20050;-77
2021/07/30 09:07:39;;;;;;;10.55;2.10;;;22.70;92.20;;;;;;4264516;27;20046;-78
2021/07/30 09:09:52;;;;;;;4.95;2.50;;;22.80;92.00;;;;;;4263525;27;20653;-77
2021/07/30 09:11:56;;;;;;;6.00;2.20;;;23.10;91.90;;;;;;4264574;27;20049;-77
2021/07/30 09:14:01;;;;;;;14.85;2.35;;;23.10;91.80;;;;;;4279486;27;20056;-77
2021/07/30 09:16:07;;;;;;;11.00;2.55;;;23.20;91.60;;;;;;4281276;27;20057;-77
2021/07/30 09:18:23;;;;;;;6.65;2.42;;;23.20;91.50;;;;;;4280968;27;20103;-77
2021/07/30 09:20:28;;;;;;;17.13;2.80;;;23.20;91.50;;;;;;4280984;27;20054;-77
2021/07/30 09:22:49;;;;;;;10.25;2.70;;;23.20;91.60;;;;;;4280688;27;20060;-77
2021/07/30 09:24:57;;;;;;;8.57;2.50;;;23.30;91.50;;;;;;4246881;27;20055;-77
2021/07/30 09:27:01;;;;;;;6.78;2.47;;;23.30;91.40;;;;;;4228554;28;20062;-77
2021/07/30 09:29:07;;;;;;;6.05;2.10;;;23.30;91.60;;;;;;4246693;27;20051;-77
2021/07/30 09:31:10;;;;;;;6.50;2.30;;;23.40;91.60;;;;;;4228593;28;20058;-77
2021/07/30 09:33:24;;;;;;;12.43;2.90;;;23.40;91.60;;;;;;4261671;27;20051;-76
2021/07/30 09:35:28;;;;;;;5.03;2.38;;;23.30;91.70;;;;;;4263908;27;20046;-77
2021/07/30 09:37:31;;;;;;;7.10;2.65;;;23.30;91.80;;;;;;4264213;27;20051;-77
2021/07/30 09:39:40;;;;;;;5.75;2.95;;;23.30;91.80;;;;;;4263157;27;20057;-76
2021/07/30 09:41:57;;;;;;;6.95;2.90;;;23.30;91.60;;;;;;4263217;27;20055;-77
2021/07/30 09:44:06;;;;;;;9.85;2.70;;;23.40;91.70;;;;;;4244570;27;20104;-77
2021/07/30 09:46:10;;;;;;;13.20;3.22;;;23.40;91.50;;;;;;4264454;27;20042;-79
2021/07/30 09:48:13;;;;;;;10.32;2.88;;;23.40;91.60;;;;;;4231778;27;20139;-78
2021/07/30 09:50:18;;;;;;;11.85;2.65;;;23.50;91.50;;;;;;4269942;27;20301;-78
2021/07/30 09:52:26;;;;;;;10.73;2.67;;;23.50;91.90;;;;;;4271091;27;20042;-77
2021/07/30 09:54:31;;;;;;;7.25;2.38;;;23.50;91.90;;;;;;4269276;27;20039;-78
2021/07/30 09:56:34;;;;;;;4.30;2.63;;;23.70;91.80;;;;;;4271483;27;20056;-77
2021/07/30 09:58:37;;;;;;;7.20;2.33;;;23.60;91.50;;;;;;4268649;27;20047;-77
2021/07/30 10:00:41;;;;;;;12.25;2.40;;;23.80;91.50;;;;;;4282987;27;20058;-79
2021/07/30 10:02:46;;;;;;;5.93;2.20;;;23.70;91.50;;;;;;4280813;27;20056;-77
2021/07/30 10:04:51;;;;;;;12.88;3.22;;;23.70;91.70;;;;;;4280577;27;20035;-79
2021/07/30 10:06:54;;;;;;;;;;;23.80;91.60;;;;;;4248656;27;20131;-78
2021/07/30 10:08:59;;;;;;;8.48;2.33;;;23.70;91.30;;;;;;4263973;27;19925;-79
2021/07/30 10:11:02;;;;;;;10.05;2.35;;;23.50;91.60;;;;;;4264646;27;20047;-79
2021/07/30 10:13:12;;;;;;;8.15;2.60;;;23.50;91.90;;;;;;4264147;27;20578;-82
2021/07/30 10:15:16;;;;;;;11.40;2.60;;;23.50;91.60;;;;;;4245383;27;20398;-79
2021/07/30 10:17:28;;;;;;;7.18;1.90;;;23.60;91.80;;;;;;4264483;27;20057;-79
2021/07/30 10:19:31;;;;;;;7.03;2.22;;;23.80;91.30;;;;;;4245526;27;20294;-76
2021/07/30 10:21:34;;;;;;;9.30;2.42;;;24.00;91.00;;;;;;4263655;27;20055;-79
2021/07/30 10:23:39;;;;;;;6.32;2.10;;;23.80;90.70;;;;;;4245640;27;20045;-80
2021/07/30 10:25:49;;;;;;;16.98;2.50;;;23.60;90.90;;;;;;4246113;27;20043;-81
2021/07/30 10:27:57;;;;;;;9.00;1.95;;;23.50;90.00;;;;;;4246931;27;20043;-82
2021/07/30 10:30:03;;;;;;;9.98;1.90;;;23.60;90.20;;;;;;4264744;27;20047;-83
2021/07/30 10:32:06;;;;;;;5.13;2.20;;;23.80;90.20;;;;;;4264391;27;20055;-76
2021/07/30 10:34:09;;;;;;;7.78;2.33;;;23.90;90.10;;;;;;4264569;27;20418;-81
2021/07/30 10:36:31;;;;;;;8.63;1.92;;;24.20;89.90;;;;;;4265019;27;20528;-79
2021/07/30 10:38:35;;;;;;;5.95;1.85;;;24.30;88.70;;;;;;4264812;27;20047;-80
2021/07/30 10:40:39;;;;;;;3.87;1.60;;;24.10;87.80;;;;;;4264638;27;20126;-75
2021/07/30 10:43:06;;;;;;;9.35;2.00;;;24.00;87.80;;;;;;4263975;27;20054;-78
2021/07/30 10:45:19;;;;;;;19.70;2.47;;;23.80;88.90;;;;;;4264300;27;20054;-81